Time;durP1;ratioP1;P1;durP2;ratioP2;P2;SDS_P1;SDS_P2;PMS_P1;PMS_P2;Temp;Humidity;BMP_temperature;BMP_pressure;BME280_temperature;BME280_humidity;BME280_pressure;Samples;Min_cycle;Max_cycle;Signal;HPM_P1;HPM_P2
2023/05/15 00:01:05;;;;;;;4.47;2.20;;;;;;;17.46;100.00;101304.88;2086133;28;20044;-69
2023/05/15 00:02:27;;;;;;;8.07;2.40;;;;;;;17.47;100.00;101295.97;2093578;28;20392;-69
2023/05/15 00:03:50;;;;;;;4.82;1.90;;;;;;;17.46;100.00;101303.09;2092459;28;20118;-69
2023/05/15 00:05:13;;;;;;;5.57;2.40;;;;;;;17.45;100.00;101303.13;2094584;28;20040;-70
2023/05/15 00:06:35;;;;;;;6.50;2.15;;;;;;;17.44;100.00;101298.69;2090031;28;20037;-69
2023/05/15 00:07:58;;;;;;;4.65;1.95;;;;;;;17.44;100.00;101304.91;2102608;28;20051;-68
2023/05/15 00:09:21;;;;;;;8.52;2.55;;;;;;;17.42;100.00;101303.13;2088316;28;20138;-69
2023/05/15 00:10:42;;;;;;;4.47;2.10;;;;;;;17.38;100.00;101304.03;2091899;28;20583;-69
2023/05/15 00:12:04;;;;;;;7.15;2.30;;;;;;;17.34;100.00;101299.59;2094635;28;20099;-69
2023/05/15 00:13:26;;;;;;;8.05;2.13;;;;;;;17.31;100.00;101299.63;2090184;28;20052;-69
2023/05/15 00:14:48;;;;;;;4.95;2.25;;;;;;;17.29;100.00;101301.41;2085131;28;20540;-67
2023/05/15 00:16:10;;;;;;;6.28;2.53;;;;;;;17.28;100.00;101307.63;2091794;28;20083;-69
2023/05/15 00:17:31;;;;;;;6.38;2.08;;;;;;;17.26;100.00;101302.31;2093218;28;20122;-69
2023/05/15 00:18:54;;;;;;;5.85;2.40;;;;;;;17.29;100.00;101304.06;2093004;28;20102;-70
2023/05/15 00:20:16;;;;;;;6.15;2.25;;;;;;;17.29;100.00;101312.97;2093960;28;20064;-69
2023/05/15 00:21:37;;;;;;;4.10;2.03;;;;;;;17.29;100.00;101312.97;2090280;28;20053;-69
2023/05/15 00:23:02;;;;;;;5.63;2.20;;;;;;;17.29;100.00;101307.63;2094161;28;20095;-69
2023/05/15 00:24:24;;;;;;;6.93;2.15;;;;;;;17.30;100.00;101312.06;2088348;28;20041;-69
2023/05/15 00:25:45;;;;;;;5.28;2.00;;;;;;;17.28;100.00;101303.19;2091666;28;20608;-69
2023/05/15 00:27:08;;;;;;;3.97;2.50;;;;;;;17.28;100.00;101302.28;2093175;28;20040;-69
2023/05/15 00:28:31;;;;;;;4.68;2.40;;;;;;;17.26;100.00;101304.09;2094437;28;20049;-69
2023/05/15 00:29:53;;;;;;;4.00;2.20;;;;;;;17.25;100.00;101304.97;2095001;28;20036;-69
2023/05/15 00:31:16;;;;;;;5.45;2.35;;;;;;;17.22;100.00;101310.31;2107313;28;20063;-68
2023/05/15 00:32:37;;;;;;;5.20;2.25;;;;;;;17.18;100.00;101306.78;2090539;28;20561;-69
2023/05/15 00:34:00;;;;;;;6.15;2.05;;;;;;;17.16;100.00;101305.00;2109446;28;20074;-69
2023/05/15 00:35:21;;;;;;;5.53;2.10;;;;;;;17.11;100.00;101299.69;2091402;28;20517;-69
2023/05/15 00:36:44;;;;;;;5.15;1.85;;;;;;;17.08;100.00;101300.56;2079635;28;20053;-68
2023/05/15 00:38:07;;;;;;;5.25;1.90;;;;;;;17.07;100.00;101300.56;2092500;28;20413;-69
2023/05/15 00:39:32;;;;;;;4.95;1.73;;;;;;;17.07;100.00;101301.44;2082614;28;20049;-70
2023/05/15 00:40:55;;;;;;;5.35;1.90;;;;;;;17.09;100.00;101299.69;2075185;28;20044;-69
2023/05/15 00:42:17;;;;;;;4.90;2.00;;;;;;;17.09;100.00;101305.00;2083795;28;20064;-69
2023/05/15 00:43:41;;;;;;;3.47;2.00;;;;;;;17.11;100.00;101300.56;2094169;28;20058;-69
2023/05/15 00:45:06;;;;;;;6.07;2.17;;;;;;;17.12;100.00;101305.03;2093193;28;20056;-69
2023/05/15 00:46:32;;;;;;;5.88;2.53;;;;;;;17.14;100.00;101294.31;2085406;28;20452;-69
2023/05/15 00:47:56;;;;;;;5.18;2.33;;;;;;;17.12;100.00;101297.00;2092596;28;20582;-69
2023/05/15 00:49:21;;;;;;;5.13;2.22;;;;;;;17.13;100.00;101300.56;2088474;28;20079;-69
2023/05/15 00:50:44;;;;;;;4.90;2.08;;;;;;;17.11;100.00;101297.00;2084923;28;20060;-69
2023/05/15 00:52:07;;;;;;;4.57;1.88;;;;;;;17.11;100.00;101297.91;2090204;28;20051;-69
2023/05/15 00:53:31;;;;;;;7.15;2.50;;;;;;;17.10;100.00;101303.22;2086357;28;20057;-69
2023/05/15 00:54:53;;;;;;;4.43;1.88;;;;;;;17.08;100.00;101289.00;2093408;28;20037;-69
2023/05/15 00:56:17;;;;;;;4.25;2.05;;;;;;;17.02;100.00;101286.34;2086404;28;20163;-69
2023/05/15 00:57:42;;;;;;;7.15;1.88;;;;;;;16.97;100.00;101294.38;2103958;28;20496;-69
2023/05/15 00:59:05;;;;;;;6.00;2.15;;;;;;;16.92;100.00;101288.16;2090598;28;20049;-69
2023/05/15 01:00:27;;;;;;;4.93;2.10;;;;;;;16.91;100.00;101288.16;2086081;28;20095;-68
2023/05/15 01:01:50;;;;;;;;;;;;;;;16.88;100.00;101285.50;2091507;28;20056;-69
2023/05/15 01:03:11;;;;;;;4.57;2.20;;;;;;;16.85;100.00;101290.84;2094228;28;20300;-69
2023/05/15 01:04:34;;;;;;;5.57;2.20;;;;;;;16.85;100.00;101293.50;2081638;28;20061;-69
2023/05/15 01:05:57;;;;;;;5.45;2.03;;;;;;;16.86;100.00;101285.50;2099494;28;20070;-69
2023/05/15 01:07:19;;;;;;;7.55;2.10;;;;;;;16.88;100.00;101289.03;2074787;28;20042;-70
2023/05/15 01:08:47;;;;;;;4.07;1.75;;;;;;;16.88;100.00;101278.38;2072477;28;20084;-69
2023/05/15 01:10:10;;;;;;;3.55;2.08;;;;;;;16.86;100.00;101279.28;2086403;28;20053;-69
2023/05/15 01:11:35;;;;;;;4.60;1.92;;;;;;;16.85;100.00;101277.50;2105057;28;20072;-69
2023/05/15 01:13:00;;;;;;;5.82;2.03;;;;;;;16.88;100.00;101282.81;2098521;28;20083;-70
2023/05/15 01:14:21;;;;;;;7.85;2.28;;;;;;;16.89;100.00;101273.94;2101662;28;20040;-69
2023/05/15 01:15:44;;;;;;;3.97;2.63;;;;;;;16.90;100.00;101279.28;2088011;28;20053;-69
2023/05/15 01:17:06;;;;;;;3.55;2.08;;;;;;;16.91;100.00;101273.06;2093474;28;20469;-69
2023/05/15 01:18:31;;;;;;;3.83;2.13;;;;;;;16.90;100.00;101278.38;2094534;28;20048;-69
2023/05/15 01:19:53;;;;;;;5.65;2.30;;;;;;;16.86;100.00;101277.50;2085711;28;20045;-69
2023/05/15 01:21:48;;;;;;;4.78;2.20;;;;;;;16.83;100.00;101274.84;2084780;28;20132;-68
2023/05/15 01:23:16;;;;;;;6.13;2.13;;;;;;;16.81;100.00;101271.28;2096595;28;20040;-68
2023/05/15 01:25:06;;;;;;;6.93;2.15;;;;;;;16.81;100.00;101271.28;2085152;28;20463;-69
2023/05/15 01:26:55;;;;;;;3.92;2.08;;;;;;;16.84;100.00;101276.63;2104939;28;20066;-69
2023/05/15 01:28:25;;;;;;;5.70;2.42;;;;;;;16.83;100.00;101273.94;2104984;28;20055;-69
2023/05/15 01:29:55;;;;;;;6.30;2.10;;;;;;;16.82;100.00;101262.38;2095549;28;20040;-69
2023/05/15 01:31:22;;;;;;;6.90;2.35;;;;;;;16.83;100.00;101261.50;2093962;28;20146;-69
2023/05/15 01:32:54;;;;;;;3.72;2.08;;;;;;;16.81;100.00;101259.72;2086359;28;20098;-69
2023/05/15 01:34:18;;;;;;;5.03;2.15;;;;;;;16.79;100.00;101261.53;2101878;28;20051;-69
2023/05/15 01:35:45;;;;;;;4.85;2.25;;;;;;;16.80;100.00;101258.84;2094157;28;20040;-69
2023/05/15 01:37:09;;;;;;;4.38;2.13;;;;;;;16.80;100.00;101250.88;2086267;28;20052;-69
2023/05/15 01:38:37;;;;;;;5.15;2.40;;;;;;;16.82;100.00;101250.84;2081216;28;20045;-69
2023/05/15 01:40:03;;;;;;;4.75;2.10;;;;;;;16.83;100.00;101241.94;2094626;28;20048;-69
2023/05/15 01:41:28;;;;;;;6.50;2.20;;;;;;;16.85;100.00;101242.84;2092736;28;20136;-69
2023/05/15 01:42:55;;;;;;;6.00;2.00;;;;;;;16.86;100.00;101244.63;2094297;28;20110;-69
2023/05/15 01:44:26;;;;;;;6.95;2.47;;;;;;;16.87;100.00;101241.06;2102772;28;20091;-69
2023/05/15 01:45:47;;;;;;;5.65;2.30;;;;;;;16.85;100.00;101240.19;2091906;28;20056;-69
2023/05/15 01:47:14;;;;;;;4.70;2.33;;;;;;;16.82;100.00;101237.50;2087375;28;20059;-68
2023/05/15 01:48:37;;;;;;;6.40;2.38;;;;;;;16.77;100.00;101237.50;2082550;28;20107;-70
2023/05/15 01:50:03;;;;;;;6.53;2.20;;;;;;;16.69;100.00;101239.31;2081755;28;20041;-69
2023/05/15 01:51:27;;;;;;;5.55;2.55;;;;;;;16.58;100.00;101236.63;2086138;28;20052;-69
2023/05/15 01:52:52;;;;;;;4.88;2.10;;;;;;;16.50;100.00;101235.75;2077641;28;20091;-69
2023/05/15 01:54:16;;;;;;;6.75;2.15;;;;;;;16.48;100.00;101237.50;2080194;28;20041;-69
2023/05/15 01:55:40;;;;;;;3.88;2.17;;;;;;;16.50;100.00;101229.53;2084624;28;20095;-69
2023/05/15 01:57:02;;;;;;;11.07;2.30;;;;;;;16.55;100.00;101230.41;2093673;28;20628;-69
2023/05/15 01:58:26;;;;;;;6.22;2.10;;;;;;;16.60;100.00;101223.34;2091481;28;20476;-69
2023/05/15 01:59:50;;;;;;;6.55;2.10;;;;;;;16.63;100.00;101223.31;2085391;28;20460;-69
2023/05/15 02:01:14;;;;;;;5.50;2.50;;;;;;;16.63;100.00;101216.22;2082462;28;20045;-69
2023/05/15 02:02:36;;;;;;;4.53;2.05;;;;;;;16.63;100.00;101215.31;2083065;28;20048;-68
2023/05/15 02:03:59;;;;;;;;;;;;;;;16.61;100.00;101220.66;2079535;28;20107;-69
2023/05/15 02:05:22;;;;;;;5.13;2.00;;;;;;;16.60;100.00;101216.25;2090922;28;19928;-68
2023/05/15 02:06:46;;;;;;;5.07;2.10;;;;;;;16.63;100.00;101216.22;2084367;28;20136;-69
2023/05/15 02:08:10;;;;;;;4.13;1.77;;;;;;;16.58;100.00;101212.66;2095608;28;20056;-69
2023/05/15 02:09:32;;;;;;;5.32;1.92;;;;;;;16.51;100.00;101216.22;2087613;28;20091;-69
2023/05/15 02:10:59;;;;;;;5.88;2.00;;;;;;;16.47;100.00;101217.13;2082924;28;20144;-68
2023/05/15 02:12:21;;;;;;;7.20;2.08;;;;;;;16.48;100.00;101218.84;2074954;28;20146;-70
2023/05/15 02:13:45;;;;;;;4.97;2.47;;;;;;;16.51;100.00;101213.53;2096031;28;20396;-69
2023/05/15 02:15:10;;;;;;;7.20;2.30;;;;;;;16.53;100.00;101206.44;2087961;28;20067;-69
2023/05/15 02:16:32;;;;;;;6.18;2.53;;;;;;;16.51;100.00;101210.88;2089634;28;20098;-69
2023/05/15 02:17:54;;;;;;;4.88;2.40;;;;;;;16.52;100.00;101211.75;2084904;28;20041;-69
2023/05/15 02:19:17;;;;;;;6.72;2.45;;;;;;;16.54;100.00;101207.34;2085376;28;20055;-69
2023/05/15 02:20:38;;;;;;;6.32;2.20;;;;;;;16.55;100.00;101204.63;2084733;28;20040;-69
2023/05/15 02:22:01;;;;;;;9.15;2.50;;;;;;;16.58;100.00;101203.75;2091203;28;20486;-69
2023/05/15 02:23:23;;;;;;;7.47;2.53;;;;;;;16.60;100.00;101200.25;2093413;28;20559;-69
2023/05/15 02:24:44;;;;;;;3.75;2.40;;;;;;;16.62;100.00;101200.22;2084401;28;20084;-69
2023/05/15 02:26:21;;;;;;;4.45;2.08;;;;;;;16.62;100.00;101190.44;2090836;28;20060;-69
2023/05/15 02:27:48;;;;;;;6.40;2.55;;;;;;;16.60;100.00;101194.91;2095169;28;20048;-69
2023/05/15 02:29:18;;;;;;;4.90;2.20;;;;;;;16.60;100.00;101189.59;2081119;28;20045;-68
2023/05/15 02:30:54;;;;;;;6.32;1.85;;;;;;;16.61;100.00;101191.31;2084511;28;20049;-69
2023/05/15 02:32:21;;;;;;;4.50;2.13;;;;;;;16.63;100.00;101186.00;2078549;28;20034;-69
2023/05/15 02:33:54;;;;;;;6.65;2.28;;;;;;;16.63;100.00;101184.22;2083525;28;20071;-70
2023/05/15 02:35:19;;;;;;;;;;;;;;;16.59;100.00;101179.78;2085873;28;20087;-69
2023/05/15 02:36:49;;;;;;;4.85;2.40;;;;;;;16.56;100.00;101179.75;2101795;28;19943;-70
2023/05/15 02:38:15;;;;;;;6.57;2.47;;;;;;;16.53;100.00;101179.78;2099589;28;20036;-70
2023/05/15 02:39:41;;;;;;;4.88;2.25;;;;;;;16.48;100.00;101178.00;2108662;28;20392;-69
2023/05/15 02:41:04;;;;;;;5.13;2.10;;;;;;;16.45;100.00;101178.00;2086430;28;20048;-69
2023/05/15 02:42:28;;;;;;;9.07;2.53;;;;;;;16.42;100.00;101170.91;2082518;28;20052;-70
2023/05/15 02:43:54;;;;;;;6.13;2.08;;;;;;;16.42;100.00;101170.00;2080501;28;20053;-68
2023/05/15 02:45:16;;;;;;;5.47;2.20;;;;;;;16.43;100.00;101164.69;2092091;28;20040;-69
2023/05/15 02:46:40;;;;;;;4.90;2.45;;;;;;;16.45;100.00;101164.69;2083684;28;20048;-69
2023/05/15 02:48:02;;;;;;;6.85;2.40;;;;;;;16.45;100.00;101162.91;2087434;28;20044;-69
2023/05/15 02:49:25;;;;;;;6.00;2.10;;;;;;;16.44;100.00;101158.47;2093818;28;20045;-69
2023/05/15 02:50:47;;;;;;;7.47;2.13;;;;;;;16.42;100.00;101162.91;2084118;28;20171;-69
2023/05/15 02:52:09;;;;;;;5.10;2.10;;;;;;;16.37;100.00;101162.03;2079263;28;20080;-69
2023/05/15 02:53:33;;;;;;;4.05;1.90;;;;;;;16.30;100.00;101157.59;2099419;28;20040;-69
2023/05/15 02:54:54;;;;;;;7.22;2.60;;;;;;;16.25;100.00;101159.41;2090157;28;20097;-69
2023/05/15 02:56:16;;;;;;;4.88;2.30;;;;;;;16.22;100.00;101157.59;2087871;28;20048;-69
2023/05/15 02:57:37;;;;;;;5.82;2.10;;;;;;;16.20;100.00;101155.84;2093727;28;20049;-69
2023/05/15 02:59:00;;;;;;;7.43;1.95;;;;;;;16.17;100.00;101154.06;2092749;28;20060;-69
2023/05/15 03:00:21;;;;;;;6.32;2.38;;;;;;;16.19;100.00;101162.97;2091212;28;20044;-69
2023/05/15 03:01:45;;;;;;;6.63;2.13;;;;;;;16.22;100.00;101154.94;2101996;28;20080;-70
2023/05/15 03:03:07;;;;;;;6.90;2.40;;;;;;;16.25;100.00;101154.06;2096295;28;20048;-69
2023/05/15 03:04:29;;;;;;;8.45;2.35;;;;;;;16.28;100.00;101159.38;2093505;28;20052;-68
2023/05/15 03:05:51;;;;;;;5.32;2.13;;;;;;;16.33;100.00;101157.63;2088306;28;20044;-69
2023/05/15 03:07:13;;;;;;;5.60;2.15;;;;;;;16.36;100.00;101162.91;2093231;28;20433;-69
2023/05/15 03:08:35;;;;;;;5.95;2.17;;;;;;;16.36;100.00;101165.59;2090404;28;20131;-69
2023/05/15 03:09:58;;;;;;;5.57;2.40;;;;;;;16.37;100.00;101159.38;2103152;28;20382;-69
2023/05/15 03:11:20;;;;;;;6.72;2.45;;;;;;;16.37;100.00;101163.81;2090865;28;20493;-69
2023/05/15 03:12:41;;;;;;;5.15;2.10;;;;;;;16.37;100.00;101156.69;2084116;28;20052;-69
2023/05/15 03:14:03;;;;;;;6.10;1.95;;;;;;;16.38;100.00;101158.47;2092222;28;20040;-69
2023/05/15 03:15:25;;;;;;;7.95;2.40;;;;;;;16.36;100.00;101160.25;2084972;28;20060;-69
2023/05/15 03:16:48;;;;;;;8.50;2.25;;;;;;;16.34;100.00;101160.25;2092376;28;20439;-69
2023/05/15 03:18:11;;;;;;;7.13;2.58;;;;;;;16.32;100.00;101162.06;2088068;28;20144;-69
2023/05/15 03:19:32;;;;;;;3.90;2.40;;;;;;;16.32;100.00;101167.38;2077913;28;20053;-69
2023/05/15 03:20:55;;;;;;;5.30;2.05;;;;;;;16.35;100.00;101159.38;2081761;28;20041;-69
2023/05/15 03:22:16;;;;;;;6.60;2.22;;;;;;;16.36;100.00;101170.91;2091263;28;20583;-69
2023/05/15 03:23:38;;;;;;;4.38;2.20;;;;;;;16.37;100.00;101162.03;2085957;28;20086;-68
2023/05/15 03:25:01;;;;;;;10.45;2.35;;;;;;;16.38;100.00;101166.47;2098978;28;20044;-69
2023/05/15 03:26:23;;;;;;;5.32;2.33;;;;;;;16.37;100.00;101167.38;2086239;28;20132;-69
2023/05/15 03:27:45;;;;;;;6.22;2.42;;;;;;;16.30;100.00;101166.47;2081033;28;20132;-69
2023/05/15 03:29:07;;;;;;;4.95;1.90;;;;;;;16.23;100.00;101163.81;2091437;28;20423;-69
2023/05/15 03:30:29;;;;;;;4.30;2.00;;;;;;;16.21;100.00;101163.81;2086192;28;20049;-69
2023/05/15 03:31:53;;;;;;;7.05;2.40;;;;;;;16.25;100.00;101170.03;2095064;28;20056;-69
2023/05/15 03:33:14;;;;;;;3.97;2.05;;;;;;;16.28;100.00;101165.59;2095305;28;20040;-69
2023/05/15 03:34:37;;;;;;;4.97;2.38;;;;;;;16.31;100.00;101164.72;2085352;28;20861;-69
2023/05/15 03:35:58;;;;;;;6.68;2.50;;;;;;;16.34;100.00;101164.72;2086724;28;20131;-69
2023/05/15 03:37:20;;;;;;;8.98;2.97;;;;;;;16.37;100.00;101167.38;2080462;28;20049;-68
2023/05/15 03:38:44;;;;;;;5.63;2.25;;;;;;;16.42;100.00;101157.56;2084519;28;20098;-69
2023/05/15 03:40:07;;;;;;;6.35;2.17;;;;;;;16.46;100.00;101161.13;2092033;28;20632;-69
2023/05/15 03:41:32;;;;;;;7.03;2.75;;;;;;;16.47;100.00;101162.91;2086114;28;20051;-69
2023/05/15 03:42:54;;;;;;;6.25;1.80;;;;;;;16.50;100.00;101163.78;2083871;28;20088;-69
2023/05/15 03:44:16;;;;;;;7.38;2.30;;;;;;;16.52;100.00;101159.34;2083891;28;20118;-69
2023/05/15 03:45:38;;;;;;;7.18;1.92;;;;;;;16.56;100.00;101168.22;2081246;28;20316;-69
2023/05/15 03:47:02;;;;;;;5.93;2.40;;;;;;;16.59;100.00;101163.78;2082183;28;20045;-69
2023/05/15 03:48:23;;;;;;;5.00;2.08;;;;;;;16.60;100.00;101167.38;2100458;28;20056;-69
2023/05/15 03:49:46;;;;;;;6.15;1.98;;;;;;;16.61;100.00;101166.44;2087567;28;20041;-70
2023/05/15 03:51:09;;;;;;;4.80;1.90;;;;;;;16.62;100.00;101161.13;2091521;28;20293;-69
2023/05/15 03:52:30;;;;;;;4.10;1.73;;;;;;;16.66;100.00;101160.25;2092685;28;20041;-69
2023/05/15 03:53:52;;;;;;;4.95;2.35;;;;;;;16.70;100.00;101161.09;2085033;28;20481;-69
2023/05/15 03:55:18;;;;;;;7.60;2.10;;;;;;;16.74;100.00;101158.41;2077876;28;20049;-69
2023/05/15 03:56:39;;;;;;;5.18;2.35;;;;;;;16.82;100.00;101155.72;2091224;28;20075;-68
2023/05/15 03:58:02;;;;;;;10.73;2.42;;;;;;;16.86;100.00;101154.84;2105817;28;20059;-69
2023/05/15 03:59:25;;;;;;;6.60;2.00;;;;;;;16.91;100.00;101161.03;2096741;28;20139;-69
2023/05/15 04:00:46;;;;;;;5.95;2.17;;;;;;;16.92;100.00;101154.81;2085508;28;20045;-69
2023/05/15 04:02:11;;;;;;;5.72;2.13;;;;;;;16.97;100.00;101154.78;2100204;28;20143;-69
2023/05/15 04:03:33;;;;;;;5.47;2.08;;;;;;;17.01;100.00;101159.19;2083537;28;20050;-69
2023/05/15 04:04:54;;;;;;;6.35;2.17;;;;;;;17.04;100.00;101157.41;2094649;28;20049;-69
2023/05/15 04:06:17;;;;;;;7.40;2.35;;;;;;;17.06;100.00;101154.75;2092793;28;20583;-70
2023/05/15 04:07:38;;;;;;;8.20;2.22;;;;;;;17.08;100.00;101159.16;2093500;28;20094;-69
2023/05/15 04:09:00;;;;;;;5.90;2.20;;;;;;;17.11;100.00;101159.16;2094546;28;20043;-69
2023/05/15 04:10:23;;;;;;;6.00;2.08;;;;;;;17.20;100.00;101160.03;2083576;28;20052;-70
2023/05/15 04:11:46;;;;;;;5.95;1.80;;;;;;;17.27;100.00;101159.97;2090481;28;20523;-69
2023/05/15 04:13:09;;;;;;;4.30;2.00;;;;;;;17.32;100.00;101152.84;2086503;28;20041;-69
2023/05/15 04:14:31;;;;;;;6.55;1.83;;;;;;;17.36;100.00;101148.34;2090905;28;20489;-69
2023/05/15 04:15:53;;;;;;;7.03;2.35;;;;;;;17.39;100.00;101151.88;2093359;28;20044;-70
2023/05/15 04:17:16;;;;;;;7.07;2.05;;;;;;;17.44;100.00;101144.75;2093311;28;20041;-69
2023/05/15 04:18:39;;;;;;;5.35;1.98;;;;;;;17.53;100.00;101147.34;2092049;28;20508;-69
2023/05/15 04:20:00;;;;;;;6.90;1.83;;;;;;;17.62;100.00;101143.75;2086331;28;20041;-69
2023/05/15 04:21:23;;;;;;;7.07;2.15;;;;;;;17.73;100.00;101146.34;2094278;28;20056;-70
2023/05/15 04:22:44;;;;;;;6.63;2.10;;;;;;;17.81;100.00;101148.06;2093978;28;20048;-70
2023/05/15 04:24:07;;;;;;;4.82;2.30;;;;;;;17.90;100.00;101144.44;2088948;28;20497;-69
2023/05/15 04:25:29;;;;;;;7.15;2.40;;;;;;;17.97;100.00;101148.84;2106100;28;20059;-70
2023/05/15 04:26:51;;;;;;;;;;;;;;;18.03;100.00;101147.91;2105441;28;20063;-70
2023/05/15 04:28:14;;;;;;;10.02;2.05;;;;;;;18.07;100.00;101139.84;2093149;28;19939;-69
2023/05/15 04:29:36;;;;;;;7.88;2.40;;;;;;;18.13;100.00;101138.88;2094108;28;20420;-69
2023/05/15 04:30:58;;;;;;;10.40;2.50;;;;;;;18.18;100.00;101135.25;2093683;28;20588;-69
2023/05/15 04:32:21;;;;;;;7.10;2.45;;;;;;;18.26;100.00;101137.88;2093428;28;20052;-69
2023/05/15 04:33:43;;;;;;;6.68;2.75;;;;;;;18.34;100.00;101133.34;2089229;28;20059;-70
2023/05/15 04:35:08;;;;;;;4.93;2.45;;;;;;;18.45;100.00;101133.22;2093221;28;20056;-69
2023/05/15 04:36:32;;;;;;;6.07;2.00;;;;;;;18.54;100.00;101130.44;2102910;28;20102;-70
2023/05/15 04:37:53;;;;;;;7.95;1.98;;;;;;;18.62;100.00;101131.28;2096961;28;20047;-69
2023/05/15 04:39:15;;;;;;;4.47;1.65;;;;;;;18.68;100.00;101133.91;2093921;28;20141;-69
2023/05/15 04:40:38;;;;;;;5.28;1.50;;;;;;;18.78;100.00;101129.31;2093022;28;20052;-69
2023/05/15 04:41:59;;;;;;;6.45;2.08;;;;;;;18.86;100.00;101132.78;2094436;28;20041;-70
2023/05/15 04:43:21;;;;;;;5.88;2.13;;;;;;;18.93;100.00;101121.97;2084022;28;20057;-70
2023/05/15 04:44:43;;;;;;;9.60;2.40;;;;;;;19.02;100.00;101127.22;2093824;28;20048;-70
2023/05/15 04:46:05;;;;;;;;;;;;;;;19.04;100.00;101121.81;2095082;28;20044;-69
2023/05/15 04:47:28;;;;;;;4.00;1.70;;;;;;;19.10;100.00;101124.41;2086447;28;19928;-69
2023/05/15 04:48:50;;;;;;;5.65;1.80;;;;;;;19.18;100.00;101132.34;2105589;28;20053;-69
2023/05/15 04:50:12;;;;;;;4.95;2.00;;;;;;;19.25;100.00;101129.56;2090665;28;20076;-70
2023/05/15 04:51:34;;;;;;;7.40;1.88;;;;;;;19.35;100.00;101128.56;2089161;28;20052;-69
2023/05/15 04:52:57;;;;;;;5.00;1.55;;;;;;;19.44;100.00;101130.19;2089563;28;20127;-71
2023/05/15 04:54:19;;;;;;;5.47;1.75;;;;;;;19.50;100.00;101116.75;2093981;28;20052;-69
2023/05/15 04:55:41;;;;;;;11.68;2.30;;;;;;;19.56;100.00;101111.28;2091648;28;20048;-68
2023/05/15 04:57:03;;;;;;;7.03;2.13;;;;;;;19.67;100.00;101122.72;2088564;28;20055;-69
2023/05/15 04:58:26;;;;;;;6.28;1.40;;;;;;;19.79;100.00;101122.53;2102443;28;20381;-68
2023/05/15 04:59:48;;;;;;;7.70;2.28;;;;;;;19.90;100.00;101115.19;2090937;28;20107;-68
2023/05/15 05:01:10;;;;;;;4.85;1.23;;;;;;;20.03;100.00;101128.38;2082286;28;20382;-69
2023/05/15 05:02:34;;;;;;;4.78;1.52;;;;;;;20.14;100.00;101116.56;2093656;28;20052;-69
2023/05/15 05:03:57;;;;;;;4.45;1.40;;;;;;;20.25;100.00;101122.63;2088290;28;20124;-69
2023/05/15 05:05:19;;;;;;;4.85;1.63;;;;;;;20.35;100.00;101128.72;2104784;28;20044;-68
2023/05/15 05:06:41;;;;;;;5.30;1.60;;;;;;;20.44;100.00;101124.97;2098019;28;20051;-69
2023/05/15 05:08:03;;;;;;;7.82;1.60;;;;;;;20.53;100.00;101124.81;2107295;28;20134;-69
2023/05/15 05:09:25;;;;;;;6.13;1.70;;;;;;;20.60;98.65;101129.16;2099144;28;20105;-69
2023/05/15 05:10:47;;;;;;;5.97;1.63;;;;;;;20.65;98.13;101129.94;2106571;28;20047;-69
2023/05/15 05:12:09;;;;;;;7.80;2.35;;;;;;;20.72;97.46;101125.34;2086106;28;20037;-69
2023/05/15 05:13:31;;;;;;;6.28;1.80;;;;;;;20.79;99.54;101126.97;2080608;28;20095;-69
2023/05/15 05:14:55;;;;;;;7.10;1.42;;;;;;;20.91;98.76;101118.66;2089501;28;20048;-69
2023/05/15 05:16:18;;;;;;;6.30;1.55;;;;;;;21.04;97.23;101125.53;2092027;28;20581;-69
2023/05/15 05:17:42;;;;;;;5.00;1.58;;;;;;;21.16;96.61;101119.03;2088684;28;20425;-69
2023/05/15 05:19:05;;;;;;;7.25;1.40;;;;;;;21.25;95.73;101119.75;2086400;28;20139;-68
2023/05/15 05:20:27;;;;;;;6.30;1.20;;;;;;;21.34;95.98;101119.50;2089368;28;20111;-69
2023/05/15 05:21:49;;;;;;;9.73;1.80;;;;;;;21.44;95.75;101123.75;2094136;28;20397;-68
2023/05/15 05:23:13;;;;;;;5.50;1.65;;;;;;;21.56;95.81;101121.69;2085344;28;20059;-68
2023/05/15 05:24:36;;;;;;;6.45;1.83;;;;;;;21.69;95.31;101123.19;2091089;28;20055;-68
2023/05/15 05:25:59;;;;;;;7.15;1.33;;;;;;;21.81;94.49;101118.38;2096292;28;20044;-69
2023/05/15 05:27:20;;;;;;;8.30;1.60;;;;;;;21.96;94.15;101122.53;2093446;28;20049;-69
2023/05/15 05:28:43;;;;;;;4.57;1.50;;;;;;;22.10;91.90;101116.78;2091958;28;20443;-69
2023/05/15 05:30:07;;;;;;;6.15;1.58;;;;;;;22.23;90.31;101118.22;2093782;28;20051;-69
2023/05/15 05:31:29;;;;;;;7.00;1.52;;;;;;;22.34;89.63;101123.31;2108449;28;20101;-69
2023/05/15 05:32:53;;;;;;;4.57;1.35;;;;;;;22.46;89.51;101117.59;2087850;28;20069;-69
2023/05/15 05:34:15;;;;;;;8.13;1.50;;;;;;;22.58;87.44;101119.94;2087968;28;20044;-69
2023/05/15 05:35:38;;;;;;;7.68;1.80;;;;;;;22.72;85.61;101115.06;2092183;28;20049;-69
2023/05/15 05:37:00;;;;;;;5.38;1.38;;;;;;;22.82;82.56;101111.22;2085722;28;20056;-69
2023/05/15 05:38:22;;;;;;;7.95;1.60;;;;;;;22.94;78.15;101107.28;2090436;28;20459;-69
2023/05/15 05:39:45;;;;;;;5.85;1.40;;;;;;;23.05;75.18;101114.09;2090960;28;20520;-69
2023/05/15 05:41:08;;;;;;;5.95;1.30;;;;;;;23.19;71.14;101110.09;2088322;28;20045;-70
2023/05/15 05:42:30;;;;;;;6.05;1.65;;;;;;;23.30;67.49;101108.84;2093296;28;20048;-69
2023/05/15 05:43:51;;;;;;;7.50;1.40;;;;;;;23.43;67.02;101099.44;2088254;28;20443;-69
2023/05/15 05:45:13;;;;;;;6.90;1.23;;;;;;;23.53;66.87;101105.44;2105298;28;20078;-69
2023/05/15 05:46:36;;;;;;;4.40;1.55;;;;;;;23.66;66.49;101111.31;2088288;28;20049;-69
2023/05/15 05:47:59;;;;;;;6.43;1.30;;;;;;;23.73;64.90;101108.38;2074570;28;20099;-70
2023/05/15 05:49:21;;;;;;;8.30;1.45;;;;;;;23.80;64.16;101109.94;2082976;28;20401;-69
2023/05/15 05:50:42;;;;;;;4.47;1.73;;;;;;;23.90;60.32;101112.31;2085490;28;20516;-69
2023/05/15 05:52:08;;;;;;;6.47;1.58;;;;;;;23.98;58.03;101115.63;2077283;28;20045;-70
2023/05/15 05:53:30;;;;;;;8.20;1.55;;;;;;;24.06;58.47;101105.47;2105802;28;20051;-70
2023/05/15 05:54:53;;;;;;;5.38;1.17;;;;;;;24.17;58.00;101105.97;2098862;28;20052;-69
2023/05/15 05:56:15;;;;;;;8.38;1.98;;;;;;;24.29;55.04;101102.00;2102282;28;20535;-69
2023/05/15 05:57:37;;;;;;;4.72;1.50;;;;;;;24.38;53.24;101110.66;2098703;28;20052;-69
2023/05/15 05:59:00;;;;;;;5.07;1.60;;;;;;;24.53;51.47;101110.13;2093194;28;20516;-70
2023/05/15 06:00:24;;;;;;;5.05;1.25;;;;;;;24.71;48.48;101115.75;2087454;28;20053;-69
2023/05/15 06:01:48;;;;;;;4.85;1.20;;;;;;;24.90;47.02;101112.34;2082920;28;20106;-69
2023/05/15 06:03:12;;;;;;;5.70;1.38;;;;;;;25.09;45.47;101107.13;2091581;28;20048;-70
2023/05/15 06:04:34;;;;;;;4.25;1.40;;;;;;;25.23;44.48;101110.16;2093701;28;20078;-69
2023/05/15 06:05:56;;;;;;;5.78;1.40;;;;;;;25.32;43.54;101100.81;2093704;28;20083;-70
2023/05/15 06:07:18;;;;;;;4.50;1.15;;;;;;;25.46;43.02;101102.97;2085181;28;20064;-69
2023/05/15 06:08:41;;;;;;;5.13;1.52;;;;;;;25.57;42.33;101104.31;2091184;28;20095;-70
2023/05/15 06:10:03;;;;;;;3.72;1.10;;;;;;;25.71;41.60;101101.94;2092795;28;20045;-70
2023/05/15 06:11:26;;;;;;;3.30;1.10;;;;;;;25.85;41.59;101095.94;2096244;28;20385;-69
2023/05/15 06:12:48;;;;;;;3.67;1.17;;;;;;;25.97;41.07;101099.94;2110574;28;20039;-69
2023/05/15 06:14:10;;;;;;;5.07;1.45;;;;;;;26.10;40.23;101099.34;2099209;28;20071;-69
2023/05/15 06:15:32;;;;;;;5.82;1.40;;;;;;;26.23;39.66;101099.69;2110254;28;20043;-70
2023/05/15 06:16:55;;;;;;;5.22;1.10;;;;;;;26.34;39.07;101104.66;2099084;28;20060;-70
2023/05/15 06:18:19;;;;;;;4.88;1.30;;;;;;;26.46;38.65;101106.81;2110627;28;20055;-70
2023/05/15 06:19:41;;;;;;;3.65;1.20;;;;;;;26.55;38.25;101101.00;2098600;28;20068;-70
2023/05/15 06:21:02;;;;;;;3.10;1.00;;;;;;;26.56;37.97;101100.06;2110551;28;20427;-69
2023/05/15 06:22:25;;;;;;;5.55;1.40;;;;;;;26.56;38.35;101098.25;2091034;28;20072;-70
2023/05/15 06:23:48;;;;;;;3.60;1.15;;;;;;;26.61;38.71;101103.44;2082789;28;20492;-69
2023/05/15 06:25:13;;;;;;;3.80;1.10;;;;;;;26.69;38.61;101106.69;2091084;28;20051;-70